Time;durP1;ratioP1;P1;durP2;ratioP2;P2;SDS_P1;SDS_P2;PMS_P1;PMS_P2;Temp;Humidity;BMP_temperature;BMP_pressure;BME280_temperature;BME280_humidity;BME280_pressure;Samples;Min_cycle;Max_cycle;Signal;HPM_P1;HPM_P2
2023/04/15 00:00:41;;;;;;;43.55;39.65;;;8.40;99.90;;;;;;4985779;28;20053;-83
2023/04/15 00:03:07;;;;;;;36.15;30.23;;;8.50;99.90;;;;;;4992102;28;20050;-83
2023/04/15 00:05:32;;;;;;;66.32;61.60;;;8.40;99.90;;;;;;4994071;28;20099;-83
2023/04/15 00:08:00;;;;;;;43.05;38.75;;;8.40;1.00;;;;;;4995681;28;20042;-83
2023/04/15 00:10:26;;;;;;;107.40;100.18;;;8.40;1.00;;;;;;5001824;28;20041;-83
2023/04/15 00:12:52;;;;;;;117.57;109.97;;;10.00;1.00;;;;;;5011619;28;20128;-83
2023/04/15 00:15:18;;;;;;;39.05;35.35;;;8.30;1.00;;;;;;4977407;28;20529;-83
2023/04/15 00:17:44;;;;;;;52.20;47.72;;;8.30;6.20;;;;;;4981936;28;20085;-83
2023/04/15 00:20:10;;;;;;;79.13;73.32;;;8.30;42.50;;;;;;4975394;28;20042;-83
2023/04/15 00:22:36;;;;;;;39.85;35.78;;;8.30;97.10;;;;;;4974741;28;20046;-83
2023/04/15 00:25:02;;;;;;;38.33;34.88;;;8.20;99.90;;;;;;4975670;28;20046;-83
2023/04/15 00:27:28;;;;;;;76.78;71.03;;;8.20;99.90;;;;;;4989929;28;20048;-83
2023/04/15 00:29:54;;;;;;;34.30;31.08;;;8.20;99.90;;;;;;4993994;28;20054;-83
2023/04/15 00:32:19;;;;;;;39.53;35.65;;;10.00;99.90;;;;;;5011227;28;20516;-83
2023/04/15 00:34:46;;;;;;;48.28;43.58;;;9.50;1.00;;;;;;4991410;28;20046;-83
2023/04/15 00:37:11;;;;;;;95.25;88.80;;;8.10;1.00;;;;;;4994815;28;20069;-83
2023/04/15 00:39:37;;;;;;;37.45;34.33;;;8.10;1.00;;;;;;4979574;28;20132;-83
2023/04/15 00:42:06;;;;;;;38.65;35.10;;;8.10;12.80;;;;;;4996511;28;20601;-83
2023/04/15 00:44:32;;;;;;;43.67;40.10;;;8.10;80.80;;;;;;4983151;28;20064;-83
2023/04/15 00:47:01;;;;;;;35.35;32.58;;;8.20;99.90;;;;;;4982402;28;20116;-83
2023/04/15 00:49:28;;;;;;;39.50;35.85;;;8.00;99.90;;;;;;4996555;28;20509;-83
2023/04/15 00:51:54;;;;;;;38.40;35.05;;;8.00;99.90;;;;;;5009410;28;20046;-83
2023/04/15 00:54:21;;;;;;;39.15;35.60;;;7.90;99.90;;;;;;4994162;28;20383;-83
2023/04/15 00:56:46;;;;;;;39.88;36.53;;;7.90;99.90;;;;;;5006605;28;20038;-83
2023/04/15 00:59:14;;;;;;;36.65;33.00;;;7.90;1.00;;;;;;4983771;28;20107;-83
2023/04/15 01:01:40;;;;;;;37.88;34.50;;;7.90;1.00;;;;;;5010798;28;20042;-83
2023/04/15 01:04:06;;;;;;;35.88;32.22;;;7.80;1.00;;;;;;5003019;28;20050;-83
2023/04/15 01:06:32;;;;;;;40.80;37.05;;;7.80;1.00;;;;;;5004498;28;20426;-83
2023/04/15 01:08:58;;;;;;;40.10;35.97;;;7.80;49.40;;;;;;4977363;28;20557;-83
2023/04/15 01:11:25;;;;;;;38.50;34.80;;;7.70;99.90;;;;;;4976803;28;20042;-83
2023/04/15 01:13:51;;;;;;;35.45;32.47;;;7.70;99.90;;;;;;4990683;28;20045;-83
2023/04/15 01:16:18;;;;;;;46.80;42.95;;;7.60;99.90;;;;;;4975576;28;20057;-83
2023/04/15 01:18:44;;;;;;;32.17;29.08;;;7.60;99.90;;;;;;5002187;28;20046;-83
2023/04/15 01:21:10;;;;;;;34.50;30.50;;;7.60;1.00;;;;;;5037758;28;20111;-83
2023/04/15 01:23:37;;;;;;;43.47;39.35;;;7.60;1.00;;;;;;4995876;28;20038;-83
2023/04/15 01:26:04;;;;;;;38.20;31.73;;;7.60;60.60;;;;;;5009923;28;20041;-83
2023/04/15 01:28:31;;;;;;;51.90;47.03;;;9.00;99.90;;;;;;4983332;28;20041;-83
2023/04/15 01:31:10;;;;;;;45.05;40.90;;;7.60;99.90;;;;;;4992494;28;20132;-83
2023/04/15 01:33:37;;;;;;;107.85;99.80;;;7.60;99.90;;;;;;4993999;28;20084;-83
2023/04/15 01:36:04;;;;;;;38.85;35.35;;;7.50;1.00;;;;;;4973596;28;20404;-83
2023/04/15 01:38:30;;;;;;;41.15;37.38;;;7.50;1.00;;;;;;4987155;28;20521;-83
2023/04/15 01:40:57;;;;;;;48.50;44.25;;;7.40;99.90;;;;;;4973765;28;20406;-83
2023/04/15 01:43:22;;;;;;;39.85;36.20;;;7.40;99.90;;;;;;5002193;28;20042;-83
2023/04/15 01:45:48;;;;;;;39.40;35.33;;;7.40;99.90;;;;;;4974008;28;20046;-83
2023/04/15 01:48:13;;;;;;;37.80;34.33;;;7.30;99.90;;;;;;4974736;28;20049;-83
2023/04/15 01:50:39;;;;;;;37.83;33.85;;;7.30;1.00;;;;;;4987206;28;20042;-83
2023/04/15 01:53:05;;;;;;;47.60;43.47;;;8.70;1.00;;;;;;4995977;28;20045;-83
2023/04/15 01:55:30;;;;;;;39.08;35.03;;;7.30;1.00;;;;;;4974006;28;20072;-83
2023/04/15 01:57:56;;;;;;;39.95;36.63;;;7.40;46.20;;;;;;4990831;28;20074;-83
2023/04/15 02:00:21;;;;;;;40.35;37.03;;;7.20;99.40;;;;;;4996161;28;20445;-83
2023/04/15 02:02:48;;;;;;;41.25;37.63;;;7.20;99.90;;;;;;5009563;28;20041;-83
2023/04/15 02:05:14;;;;;;;39.17;35.67;;;7.10;99.90;;;;;;5008745;28;20045;-83
2023/04/15 02:07:43;;;;;;;43.10;38.60;;;7.20;99.90;;;;;;4989629;28;20117;-83
2023/04/15 02:10:10;;;;;;;39.03;35.35;;;7.20;99.90;;;;;;4982035;28;20084;-83
2023/04/15 02:12:36;;;;;;;37.55;34.22;;;7.20;99.90;;;;;;4974245;28;20049;-83
2023/04/15 02:15:01;;;;;;;34.40;31.10;;;7.10;99.90;;;;;;4986838;28;20038;-83
2023/04/15 02:17:27;;;;;;;35.72;32.20;;;7.10;99.90;;;;;;4989926;28;20556;-83
2023/04/15 02:19:55;;;;;;;42.35;38.22;;;7.10;99.90;;;;;;4990398;28;20052;-83
2023/04/15 02:22:21;;;;;;;40.80;36.55;;;7.10;99.90;;;;;;4988910;28;20050;-83
2023/04/15 02:24:46;;;;;;;36.65;32.97;;;7.10;99.90;;;;;;5002022;28;20461;-83
2023/04/15 02:27:17;;;;;;;38.20;34.45;;;7.10;99.90;;;;;;4991546;28;20073;-83
2023/04/15 02:29:44;;;;;;;44.65;39.97;;;7.10;99.90;;;;;;4987742;28;20364;-83
2023/04/15 02:32:10;;;;;;;37.92;34.38;;;7.10;99.90;;;;;;4992473;28;20129;-83
2023/04/15 02:34:40;;;;;;;39.10;35.33;;;7.10;99.90;;;;;;5007953;28;20076;-83
2023/04/15 02:37:06;;;;;;;34.88;31.60;;;7.10;99.90;;;;;;4990618;28;20079;-83
2023/04/15 02:39:32;;;;;;;36.03;32.35;;;7.10;99.90;;;;;;4992994;28;20042;-83
2023/04/15 02:41:58;;;;;;;42.08;37.58;;;7.10;99.90;;;;;;4989300;28;20569;-83
2023/04/15 02:44:24;;;;;;;43.53;39.38;;;7.10;99.90;;;;;;5007562;28;20037;-83
2023/04/15 02:46:53;;;;;;;39.63;35.67;;;7.10;99.90;;;;;;4992426;28;20141;-83
2023/04/15 02:49:19;;;;;;;38.90;33.58;;;6.90;99.90;;;;;;4984221;28;20117;-83
2023/04/15 02:51:48;;;;;;;42.35;38.30;;;7.00;99.90;;;;;;5007116;28;20125;-83
2023/04/15 02:54:17;;;;;;;36.90;33.20;;;7.10;99.90;;;;;;4991801;28;20088;-83
2023/04/15 02:56:43;;;;;;;37.30;33.53;;;7.00;99.90;;;;;;4999142;28;20042;-83
2023/04/15 02:59:08;;;;;;;37.85;34.00;;;7.00;99.90;;;;;;4988443;28;20045;-83
2023/04/15 03:01:34;;;;;;;39.05;35.28;;;6.80;99.90;;;;;;4992097;28;20045;-83
2023/04/15 03:04:00;;;;;;;36.22;32.72;;;7.60;99.90;;;;;;5008298;28;20481;-83
2023/04/15 03:06:25;;;;;;;37.28;33.53;;;7.00;99.90;;;;;;4976687;28;20053;-83
2023/04/15 03:08:51;;;;;;;36.33;32.22;;;7.00;99.90;;;;;;4985772;28;20125;-83
2023/04/15 03:11:18;;;;;;;36.00;32.22;;;6.90;99.90;;;;;;4990937;28;20042;-83
2023/04/15 03:13:43;;;;;;;37.17;33.63;;;6.80;99.90;;;;;;5005365;28;20115;-84
2023/04/15 03:16:10;;;;;;;35.65;31.48;;;6.90;99.90;;;;;;5008643;28;20081;-83
2023/04/15 03:18:35;;;;;;;41.85;34.95;;;6.90;99.90;;;;;;5001111;28;20034;-83
2023/04/15 03:21:01;;;;;;;40.53;36.47;;;6.90;99.90;;;;;;4987762;28;20100;-83
2023/04/15 03:23:27;;;;;;;38.25;34.50;;;6.90;99.90;;;;;;4975688;28;20069;-83
2023/04/15 03:25:55;;;;;;;44.28;40.00;;;6.90;99.90;;;;;;4991902;28;20069;-83
2023/04/15 03:28:21;;;;;;;37.42;33.90;;;6.80;99.90;;;;;;4989093;28;20046;-83
2023/04/15 03:30:47;;;;;;;38.45;35.08;;;6.80;99.90;;;;;;4991142;28;20034;-83
2023/04/15 03:33:12;;;;;;;37.97;34.03;;;6.80;99.90;;;;;;4992380;28;20038;-83
2023/04/15 03:35:38;;;;;;;36.40;32.90;;;6.80;99.90;;;;;;5007647;28;20038;-83
2023/04/15 03:38:03;;;;;;;38.28;34.47;;;6.80;99.90;;;;;;5000382;28;20054;-83
2023/04/15 03:40:29;;;;;;;35.72;32.10;;;6.80;99.90;;;;;;4988995;28;20046;-83
2023/04/15 03:42:55;;;;;;;32.97;29.65;;;6.70;99.90;;;;;;4982452;28;20502;-83
2023/04/15 03:45:20;;;;;;;36.05;32.30;;;6.80;99.90;;;;;;5007975;28;20038;-82
2023/04/15 03:47:46;;;;;;;36.08;32.78;;;6.70;99.90;;;;;;5007756;28;20051;-83
2023/04/15 03:50:12;;;;;;;33.53;30.27;;;6.70;99.90;;;;;;5006040;28;20045;-83
2023/04/15 03:52:37;;;;;;;35.22;30.15;;;6.70;99.90;;;;;;5007145;28;20104;-83
2023/04/15 03:55:03;;;;;;;34.35;30.88;;;6.70;99.90;;;;;;5007617;28;20514;-83
2023/04/15 03:57:30;;;;;;;34.90;30.88;;;6.60;99.90;;;;;;4973082;28;20478;-83
2023/04/15 03:59:55;;;;;;;31.60;28.40;;;6.50;99.90;;;;;;5003794;28;20041;-83
2023/04/15 04:02:21;;;;;;;38.15;34.05;;;6.50;99.90;;;;;;5007947;28;20468;-83
2023/04/15 04:04:47;;;;;;;35.58;31.30;;;6.40;99.90;;;;;;5009833;28;20045;-83
2023/04/15 04:07:17;;;;;;;33.55;30.05;;;6.60;99.90;;;;;;4993879;28;20386;-83
2023/04/15 04:09:42;;;;;;;32.13;28.30;;;6.50;99.90;;;;;;4990288;28;20477;-83
2023/04/15 04:12:08;;;;;;;33.42;30.02;;;6.50;99.90;;;;;;5007844;28;20073;-83
2023/04/15 04:14:34;;;;;;;37.42;33.40;;;6.50;99.90;;;;;;5008035;28;20045;-83
2023/04/15 04:16:59;;;;;;;40.15;35.95;;;6.60;99.90;;;;;;5011320;28;20064;-83
2023/04/15 04:19:25;;;;;;;33.22;29.60;;;6.60;99.90;;;;;;4981101;28;20053;-83
2023/04/15 04:21:51;;;;;;;36.65;32.95;;;6.60;99.90;;;;;;4973971;28;20439;-83
2023/04/15 04:24:17;;;;;;;35.72;30.67;;;6.60;99.90;;;;;;4992084;28;20046;-83
2023/04/15 04:26:42;;;;;;;37.75;33.67;;;6.60;99.90;;;;;;4985728;28;20472;-83
2023/04/15 04:29:08;;;;;;;42.63;37.75;;;6.60;99.90;;;;;;4993502;28;20042;-87
2023/04/15 04:31:34;;;;;;;35.42;31.73;;;6.60;99.90;;;;;;4994594;28;20088;-87
2023/04/15 04:33:59;;;;;;;33.28;29.63;;;6.60;99.90;;;;;;4984093;28;20050;-87
2023/04/15 04:36:25;;;;;;;41.63;37.70;;;6.60;99.90;;;;;;4990036;28;20041;-87
2023/04/15 04:38:51;;;;;;;37.97;34.05;;;6.60;99.90;;;;;;4994308;28;20039;-87
2023/04/15 04:41:17;;;;;;;61.53;55.58;;;6.60;99.90;;;;;;4991686;28;20050;-87
2023/04/15 04:43:42;;;;;;;67.63;60.40;;;6.60;99.90;;;;;;4991484;28;20038;-87
2023/04/15 04:46:09;;;;;;;37.92;34.13;;;6.50;99.90;;;;;;4991063;28;20426;-87
2023/04/15 04:48:34;;;;;;;34.88;31.27;;;6.60;99.90;;;;;;4976175;28;20504;-87
2023/04/15 04:51:00;;;;;;;36.28;32.67;;;6.60;99.90;;;;;;4990522;28;20129;-87
2023/04/15 04:53:26;;;;;;;37.45;33.05;;;6.60;99.90;;;;;;4992541;28;20038;-88
2023/04/15 04:55:52;;;;;;;35.08;31.33;;;6.60;99.90;;;;;;4975705;28;20042;-87
2023/04/15 04:58:18;;;;;;;45.72;41.20;;;6.60;99.90;;;;;;4975714;28;20042;-86
2023/04/15 05:00:43;;;;;;;39.58;35.42;;;6.60;99.90;;;;;;5006246;28;20489;-87
2023/04/15 05:03:09;;;;;;;35.15;31.35;;;7.40;99.90;;;;;;5010671;28;20037;-87
2023/04/15 05:05:35;;;;;;;46.05;41.55;;;6.60;99.90;;;;;;5009378;28;20046;-87
2023/04/15 05:08:01;;;;;;;37.25;33.75;;;6.60;99.90;;;;;;5010233;28;20337;-87
2023/04/15 05:10:27;;;;;;;60.50;55.38;;;6.60;99.90;;;;;;4991681;28;20034;-87
2023/04/15 05:12:52;;;;;;;34.70;31.15;;;6.60;99.90;;;;;;4986265;28;20095;-87
2023/04/15 05:15:18;;;;;;;36.00;32.30;;;6.60;99.90;;;;;;5009346;28;20041;-87
2023/04/15 05:17:44;;;;;;;35.03;31.35;;;6.70;99.90;;;;;;5010679;28;20037;-87
2023/04/15 05:20:10;;;;;;;41.65;37.22;;;6.70;99.90;;;;;;5008423;28;20042;-87
2023/04/15 05:22:36;;;;;;;35.95;32.25;;;6.70;99.90;;;;;;5009050;28;20041;-87
2023/04/15 05:25:02;;;;;;;33.35;30.20;;;6.70;99.90;;;;;;5010060;28;20096;-87
2023/04/15 05:27:27;;;;;;;34.42;30.98;;;6.40;99.90;;;;;;4994462;28;20046;-87
2023/04/15 05:29:53;;;;;;;37.60;33.95;;;6.30;99.90;;;;;;5001413;28;20069;-87
2023/04/15 05:32:18;;;;;;;31.80;28.50;;;6.00;99.90;;;;;;4999873;28;20116;-87
2023/04/15 05:34:44;;;;;;;34.65;31.40;;;6.00;99.90;;;;;;4985453;28;20041;-87
2023/04/15 05:37:10;;;;;;;35.53;32.08;;;6.10;99.90;;;;;;4998350;28;20037;-87
2023/04/15 05:39:35;;;;;;;34.45;30.75;;;6.00;99.90;;;;;;4982009;28;20121;-87
2023/04/15 05:42:01;;;;;;;32.67;29.30;;;6.00;99.90;;;;;;4999170;28;20136;-87
2023/04/15 05:44:26;;;;;;;31.85;28.40;;;6.00;99.90;;;;;;4993739;28;20030;-87
2023/04/15 05:46:52;;;;;;;39.92;35.97;;;6.20;99.90;;;;;;4997670;28;20030;-87
2023/04/15 05:49:18;;;;;;;34.38;28.48;;;6.20;99.90;;;;;;5006526;28;20042;-87
2023/04/15 05:51:43;;;;;;;32.17;28.70;;;8.00;99.90;;;;;;4993793;28;20057;-87
2023/04/15 05:54:09;;;;;;;33.45;30.00;;;6.30;99.90;;;;;;4984691;28;20445;-87
2023/04/15 05:56:35;;;;;;;31.73;28.38;;;6.30;99.90;;;;;;4991902;28;20045;-87
2023/04/15 05:59:01;;;;;;;34.30;29.27;;;6.30;99.90;;;;;;4991486;28;20096;-86
2023/04/15 06:01:26;;;;;;;33.58;29.38;;;6.40;99.90;;;;;;4987118;28;20497;-87
2023/04/15 06:03:52;;;;;;;34.80;29.52;;;6.40;99.90;;;;;;4996788;28;20065;-87
2023/04/15 06:06:18;;;;;;;36.38;31.60;;;6.50;99.90;;;;;;5000235;28;20038;-87
2023/04/15 06:08:43;;;;;;;39.90;30.80;;;6.60;99.90;;;;;;5006514;28;20478;-87
2023/04/15 06:11:09;;;;;;;33.05;27.73;;;6.60;99.90;;;;;;4974314;28;20407;-87
2023/04/15 06:13:34;;;;;;;38.33;32.15;;;6.80;99.90;;;;;;4974051;28;20361;-87
2023/04/15 06:16:00;;;;;;;31.55;25.30;;;6.90;99.90;;;;;;5000073;28;20116;-87
2023/04/15 06:18:25;;;;;;;36.90;28.63;;;7.00;99.90;;;;;;4987218;28;20487;-87
2023/04/15 06:20:51;;;;;;;28.55;25.45;;;7.20;99.90;;;;;;4983429;28;20049;-87
2023/04/15 06:23:17;;;;;;;33.22;27.90;;;7.20;99.90;;;;;;4980614;28;20073;-87
2023/04/15 06:25:42;;;;;;;29.05;24.60;;;7.30;99.90;;;;;;5000062;28;20501;-86
2023/04/15 06:28:08;;;;;;;27.67;24.55;;;7.40;99.90;;;;;;5000664;28;20045;-87
2023/04/15 06:30:34;;;;;;;31.30;27.27;;;7.60;99.90;;;;;;5007843;28;20041;-87
2023/04/15 06:33:02;;;;;;;34.25;30.98;;;7.60;99.90;;;;;;5002647;28;20113;-87
2023/04/15 06:35:27;;;;;;;35.63;31.75;;;8.70;99.90;;;;;;4995800;28;20042;-87
2023/04/15 06:37:53;;;;;;;38.03;34.00;;;7.80;99.90;;;;;;4991148;28;20497;-87
2023/04/15 06:40:18;;;;;;;26.60;22.60;;;8.50;99.90;;;;;;4983291;28;20100;-87
2023/04/15 06:42:44;;;;;;;22.83;19.80;;;8.20;99.90;;;;;;4994079;28;20068;-87
2023/04/15 06:45:10;;;;;;;34.42;31.05;;;8.30;99.90;;;;;;4994496;28;20129;-87
2023/04/15 06:47:36;;;;;;;54.53;45.75;;;8.60;99.90;;;;;;4990621;28;20053;-87
2023/04/15 06:50:02;;;;;;;47.10;42.75;;;8.80;99.90;;;;;;4988868;28;20050;-87
2023/04/15 06:52:28;;;;;;;65.15;58.42;;;9.00;99.90;;;;;;4976712;28;20060;-87
2023/04/15 06:54:54;;;;;;;71.93;61.60;;;9.10;99.90;;;;;;4980847;28;20034;-86
2023/04/15 06:57:19;;;;;;;62.95;56.45;;;9.30;99.90;;;;;;4988792;28;20508;-87
2023/04/15 06:59:45;;;;;;;60.38;52.53;;;9.40;99.90;;;;;;4999312;28;20456;-87
2023/04/15 07:02:13;;;;;;;58.42;52.35;;;9.50;99.90;;;;;;5001836;28;20037;-87
2023/04/15 07:04:39;;;;;;;60.35;54.60;;;9.60;99.90;;;;;;4995785;28;20044;-87
2023/04/15 07:07:04;;;;;;;71.13;63.58;;;9.70;99.90;;;;;;4979953;28;20034;-87
2023/04/15 07:09:31;;;;;;;78.47;69.20;;;9.70;99.90;;;;;;4998353;28;20133;-87
2023/04/15 07:11:56;;;;;;;51.78;46.83;;;9.80;99.90;;;;;;5001367;28;20125;-86
2023/04/15 07:14:22;;;;;;;66.35;59.45;;;11.00;99.90;;;;;;4997412;28;20565;-86
2023/04/15 07:16:48;;;;;;;83.90;75.05;;;11.60;99.90;;;;;;4994445;28;20541;-86
2023/04/15 07:19:13;;;;;;;75.05;66.93;;;9.90;99.90;;;;;;4983633;28;20034;-85
2023/04/15 07:21:39;;;;;;;72.70;60.75;;;10.00;99.90;;;;;;4998988;28;20038;-85
2023/04/15 07:24:05;;;;;;;67.85;60.70;;;10.00;99.90;;;;;;4993507;28;20053;-85
2023/04/15 07:26:31;;;;;;;67.60;60.42;;;10.00;99.90;;;;;;4993734;28;20089;-85
2023/04/15 07:28:56;;;;;;;84.35;75.20;;;10.00;99.90;;;;;;4993281;28;20038;-85
2023/04/15 07:31:22;;;;;;;64.40;57.92;;;10.00;99.90;;;;;;4995976;28;20042;-85
2023/04/15 07:33:47;;;;;;;68.25;61.72;;;10.00;99.90;;;;;;4980091;28;20065;-85
2023/04/15 07:36:14;;;;;;;93.60;72.57;;;10.00;99.90;;;;;;4988846;28;20446;-85
2023/04/15 07:38:41;;;;;;;96.93;87.15;;;10.00;99.90;;;;;;4975589;28;20093;-85
2023/04/15 07:41:07;;;;;;;67.32;60.58;;;10.20;99.90;;;;;;4999534;28;20446;-84
2023/04/15 07:43:32;;;;;;;69.13;62.22;;;10.30;99.90;;;;;;4983167;28;20058;-85
2023/04/15 07:45:58;;;;;;;79.22;71.25;;;10.40;99.90;;;;;;5001042;28;20049;-86
2023/04/15 07:48:24;;;;;;;71.50;64.20;;;11.20;99.90;;;;;;4983053;28;20120;-86
2023/04/15 07:50:50;;;;;;;70.03;63.10;;;10.30;99.90;;;;;;4994323;28;20498;-85
2023/04/15 07:53:15;;;;;;;73.72;66.10;;;12.10;99.90;;;;;;4998951;28;20042;-86
2023/04/15 07:55:41;;;;;;;107.53;83.30;;;10.60;99.90;;;;;;4998669;28;20505;-85
2023/04/15 07:58:06;;;;;;;92.32;78.70;;;10.70;99.90;;;;;;4999246;28;20038;-86
2023/04/15 08:00:32;;;;;;;63.10;54.47;;;10.70;99.90;;;;;;4992551;28;20076;-86
2023/04/15 08:02:58;;;;;;;69.00;55.88;;;10.70;99.90;;;;;;4995173;28;20046;-86
2023/04/15 08:05:24;;;;;;;73.43;61.30;;;10.70;99.90;;;;;;4977258;28;20054;-86
2023/04/15 08:07:50;;;;;;;75.80;65.30;;;10.70;99.90;;;;;;4990636;28;20184;-80
2023/04/15 08:10:16;;;;;;;54.10;48.72;;;11.50;99.90;;;;;;4994910;28;20125;-85
2023/04/15 08:12:41;;;;;;;62.78;55.95;;;10.80;99.90;;;;;;5011522;28;20152;-85
2023/04/15 08:15:08;;;;;;;64.43;57.67;;;10.60;99.90;;;;;;4989042;28;20042;-85
2023/04/15 08:17:33;;;;;;;75.78;67.53;;;10.70;99.90;;;;;;4989471;28;20050;-80
2023/04/15 08:20:04;;;;;;;53.72;48.30;;;10.60;99.90;;;;;;4993919;28;20404;-85
2023/04/15 08:22:30;;;;;;;71.57;63.13;;;10.60;99.90;;;;;;5012211;28;20191;-86
2023/04/15 08:24:56;;;;;;;44.90;40.58;;;12.10;99.90;;;;;;5017706;28;20120;-86
2023/04/15 08:27:22;;;;;;;75.47;61.60;;;12.40;99.90;;;;;;4998282;28;20034;-86
2023/04/15 08:29:47;;;;;;;76.13;67.80;;;10.50;99.90;;;;;;4999574;28;20048;-85
2023/04/15 08:32:13;;;;;;;69.03;62.67;;;10.50;99.90;;;;;;4998702;28;20057;-86
2023/04/15 08:34:39;;;;;;;74.60;61.88;;;12.30;99.90;;;;;;5000125;28;20061;-85
2023/04/15 08:37:05;;;;;;;46.53;42.00;;;12.30;99.90;;;;;;5011952;28;20073;-86
2023/04/15 08:39:31;;;;;;;78.47;64.28;;;11.90;99.90;;;;;;4994684;28;20050;-86
2023/04/15 08:42:06;;;;;;;77.15;69.07;;;12.60;99.90;;;;;;4985858;28;20052;-85
2023/04/15 08:44:37;;;;;;;55.00;49.47;;;12.20;99.90;;;;;;4982041;28;20129;-86
2023/04/15 08:47:07;;;;;;;69.97;59.15;;;10.80;99.90;;;;;;5005921;28;20072;-85
2023/04/15 08:49:36;;;;;;;73.15;66.13;;;11.00;99.90;;;;;;4986423;28;20042;-86
2023/04/15 08:52:03;;;;;;;45.90;41.50;;;11.90;99.90;;;;;;5003519;28;20046;-86
2023/04/15 08:54:29;;;;;;;65.32;58.20;;;11.10;99.90;;;;;;4983648;28;20038;-86
2023/04/15 08:56:57;;;;;;;66.53;59.42;;;11.10;99.90;;;;;;5008133;28;20045;-85
2023/04/15 08:59:23;;;;;;;82.80;72.07;;;12.70;99.90;;;;;;4981624;28;20034;-86
2023/04/15 09:01:52;;;;;;;71.95;62.15;;;11.30;99.90;;;;;;4981329;28;20406;-85
2023/04/15 09:04:18;;;;;;;67.47;57.45;;;11.20;99.90;;;;;;4980095;28;20490;-86
2023/04/15 09:06:43;;;;;;;71.80;63.97;;;11.40;99.90;;;;;;4987319;28;20048;-85
2023/04/15 09:09:09;;;;;;;46.42;41.58;;;13.00;99.90;;;;;;4987811;28;20045;-85
2023/04/15 09:11:35;;;;;;;59.60;53.55;;;11.30;99.90;;;;;;4980399;28;20409;-86
2023/04/15 09:14:01;;;;;;;81.18;66.95;;;11.40;99.90;;;;;;4993433;28;20073;-86
2023/04/15 09:16:27;;;;;;;64.32;57.55;;;11.20;99.90;;;;;;5001857;28;20132;-86
2023/04/15 09:18:53;;;;;;;76.03;60.83;;;11.10;99.90;;;;;;4983035;28;20041;-85
2023/04/15 09:21:19;;;;;;;63.95;56.97;;;12.60;99.90;;;;;;4984123;28;20038;-85
2023/04/15 09:23:58;;;;;;;45.70;40.92;;;11.10;99.90;;;;;;4985410;28;20049;-85
2023/04/15 09:26:35;;;;;;;75.38;67.60;;;11.20;99.90;;;;;;5002941;28;20054;-85
2023/04/15 09:29:13;;;;;;;65.35;58.75;;;11.30;99.90;;;;;;4980485;28;20042;-85
2023/04/15 09:31:40;;;;;;;71.68;61.58;;;11.30;99.90;;;;;;4998291;28;20133;-86
2023/04/15 09:34:06;;;;;;;62.00;55.22;;;11.90;99.90;;;;;;4999849;28;20521;-85
2023/04/15 09:36:52;;;;;;;52.58;46.60;;;11.30;32.20;;;;;;4995031;28;20037;-85
2023/04/15 09:39:17;;;;;;;87.90;75.43;;;11.20;1.00;;;;;;5002997;28;20050;-85
2023/04/15 09:41:43;;;;;;;50.25;44.83;;;11.10;1.00;;;;;;4988437;28;20494;-86
2023/04/15 09:44:25;;;;;;;57.92;47.08;;;11.00;1.00;;;;;;4982578;28;20069;-85
2023/04/15 09:46:51;;;;;;;96.20;76.60;;;11.10;1.00;;;;;;5001526;28;20675;-84
2023/04/15 09:49:17;;;;;;;69.50;56.00;;;11.10;1.00;;;;;;4988669;28;20136;-84
2023/04/15 09:51:43;;;;;;;74.93;63.90;;;11.30;60.00;;;;;;4975709;28;20034;-85
2023/04/15 09:54:08;;;;;;;96.25;79.50;;;11.30;40.40;;;;;;4979197;28;20030;-84
2023/04/15 09:56:37;;;;;;;47.40;42.67;;;11.20;1.00;;;;;;4979341;28;20141;-85
2023/04/15 09:59:04;;;;;;;62.30;56.10;;;11.30;1.00;;;;;;5004521;28;20100;-84
2023/04/15 10:01:30;;;;;;;51.22;46.05;;;11.50;1.00;;;;;;4978164;28;20518;-84
2023/04/15 10:03:56;;;;;;;74.45;64.60;;;13.10;99.90;;;;;;5000686;28;20045;-85
2023/04/15 10:06:25;;;;;;;62.83;56.22;;;11.50;99.90;;;;;;4997673;28;20049;-85
2023/04/15 10:08:51;;;;;;;85.55;75.68;;;13.10;99.90;;;;;;5000837;28;20486;-84
2023/04/15 10:11:18;;;;;;;62.63;56.55;;;12.60;1.00;;;;;;4981616;28;20092;-84
2023/04/15 10:13:45;;;;;;;65.78;59.00;;;11.70;99.90;;;;;;4992336;28;20034;-85
2023/04/15 10:16:13;;;;;;;55.35;49.80;;;11.40;1.00;;;;;;4981260;28;20569;-84
2023/04/15 10:18:44;;;;;;;64.32;57.95;;;11.50;99.90;;;;;;4985498;28;20136;-84
2023/04/15 10:21:11;;;;;;;55.67;49.72;;;12.70;27.00;;;;;;4988654;28;20045;-85
2023/04/15 10:23:37;;;;;;;77.30;69.45;;;11.70;1.00;;;;;;4976998;28;20145;-85
2023/04/15 10:26:04;;;;;;;52.22;46.55;;;11.80;1.00;;;;;;4986052;28;20121;-84
2023/04/15 10:28:29;;;;;;;55.28;48.50;;;11.70;31.60;;;;;;4992446;28;20033;-85
2023/04/15 10:30:58;;;;;;;45.05;40.10;;;13.20;1.00;;;;;;5004450;28;20034;-85
2023/04/15 10:33:24;;;;;;;50.50;45.42;;;11.80;99.90;;;;;;4997371;28;20121;-84
2023/04/15 10:35:53;;;;;;;54.13;48.55;;;12.90;99.90;;;;;;4977966;28;20510;-84
2023/04/15 10:38:34;;;;;;;37.97;33.90;;;12.00;77.50;;;;;;5003676;28;20501;-85
2023/04/15 10:41:17;;;;;;;59.70;53.38;;;12.10;1.00;;;;;;5007738;28;20497;-84
2023/04/15 10:44:02;;;;;;;58.75;52.83;;;12.30;99.90;;;;;;4997858;28;20038;-84
2023/04/15 10:46:39;;;;;;;57.92;52.17;;;12.10;99.90;;;;;;4983435;28;20049;-85
2023/04/15 10:49:23;;;;;;;52.35;46.83;;;13.40;99.90;;;;;;5000462;28;20046;-85
2023/04/15 10:51:56;;;;;;;40.83;36.72;;;11.90;1.00;;;;;;4977716;28;20597;-85
2023/04/15 10:54:25;;;;;;;75.45;66.85;;;13.40;99.90;;;;;;4973935;28;20117;-85
2023/04/15 10:57:06;;;;;;;66.53;57.50;;;11.90;99.90;;;;;;4980091;28;20053;-85
2023/04/15 10:59:32;;;;;;;51.70;46.25;;;12.90;99.90;;;;;;5002921;28;20038;-84
2023/04/15 11:02:04;;;;;;;35.63;32.10;;;12.10;99.90;;;;;;4995307;28;20387;-84
2023/04/15 11:04:58;;;;;;;58.97;52.90;;;12.20;99.90;;;;;;4983468;28;20049;-84
2023/04/15 11:07:37;;;;;;;47.00;42.33;;;12.20;99.90;;;;;;4984048;28;20065;-84
2023/04/15 11:10:24;;;;;;;45.92;41.30;;;12.00;7.80;;;;;;4991095;28;20038;-85
2023/04/15 11:12:56;;;;;;;57.30;51.25;;;11.80;1.00;;;;;;4972899;28;20038;-84
2023/04/15 11:15:33;;;;;;;56.22;50.30;;;11.70;45.40;;;;;;4993122;28;20049;-84
2023/04/15 11:18:19;;;;;;;61.45;53.38;;;11.50;1.00;;;;;;4980980;28;20072;-84
2023/04/15 11:20:50;;;;;;;61.50;55.17;;;11.70;99.90;;;;;;5003859;28;20046;-85
2023/04/15 11:23:48;;;;;;;56.88;51.08;;;11.80;99.90;;;;;;4999251;28;20030;-84
2023/04/15 11:26:14;;;;;;;59.08;53.03;;;11.80;99.90;;;;;;4995823;28;20057;-84
2023/04/15 11:28:42;;;;;;;61.70;55.47;;;13.40;99.90;;;;;;4990214;28;20121;-84
2023/04/15 11:31:13;;;;;;;61.72;54.97;;;13.10;86.30;;;;;;4992583;28;20537;-85
2023/04/15 11:33:44;;;;;;;67.28;54.13;;;11.50;90.50;;;;;;5004397;28;20050;-85
2023/04/15 11:36:10;;;;;;;56.42;50.83;;;11.30;7.50;;;;;;5007135;28;20065;-84
2023/04/15 11:38:36;;;;;;;67.63;60.13;;;11.30;41.90;;;;;;5005959;28;20502;-85
2023/04/15 11:41:02;;;;;;;80.13;68.65;;;11.20;77.50;;;;;;4989333;28;20041;-84
2023/04/15 11:43:31;;;;;;;68.50;62.10;;;11.20;99.90;;;;;;4987825;28;20049;-85
2023/04/15 11:45:59;;;;;;;82.63;73.75;;;11.10;99.90;;;;;;4986126;28;20473;-85
2023/04/15 11:48:26;;;;;;;69.82;62.15;;;11.20;99.90;;;;;;4988678;28;20034;-84
2023/04/15 11:50:54;;;;;;;87.75;74.18;;;11.10;1.00;;;;;;4982556;28;20490;-85
2023/04/15 11:53:19;;;;;;;59.85;51.60;;;10.70;1.00;;;;;;4983463;28;20405;-84
2023/04/15 11:55:51;;;;;;;82.15;71.90;;;11.10;1.00;;;;;;4983869;28;20042;-84
2023/04/15 11:58:24;;;;;;;99.70;69.38;;;11.20;1.00;;;;;;4979009;28;20111;-84
2023/04/15 12:00:55;;;;;;;80.45;71.70;;;11.10;71.70;;;;;;4987178;28;20046;-84
2023/04/15 12:03:23;;;;;;;71.93;64.05;;;11.00;95.60;;;;;;4987919;28;20231;-84
2023/04/15 12:06:10;;;;;;;116.65;92.07;;;10.80;93.50;;;;;;4977803;28;20173;-84
2023/04/15 12:08:54;;;;;;;;;;;10.80;99.90;;;;;;4981643;28;20043;-85
2023/04/15 12:11:26;;;;;;;81.95;71.78;;;10.90;15.00;;;;;;4980665;28;19937;-84
2023/04/15 12:13:55;;;;;;;81.90;73.68;;;10.90;29.50;;;;;;5008486;28;20053;-84
2023/04/15 12:16:21;;;;;;;62.25;56.25;;;10.90;6.90;;;;;;5006781;28;20077;-84
2023/04/15 12:18:51;;;;;;;59.63;54.03;;;12.10;27.80;;;;;;5002738;28;20038;-84
2023/04/15 12:21:21;;;;;;;88.78;76.55;;;10.70;99.90;;;;;;4992714;28;20038;-84
2023/04/15 12:23:51;;;;;;;77.88;65.72;;;11.10;99.90;;;;;;4984546;28;20042;-84
2023/04/15 12:26:24;;;;;;;85.90;70.65;;;10.70;1.00;;;;;;4995127;28;20073;-84
2023/04/15 12:29:02;;;;;;;78.25;69.40;;;10.90;99.90;;;;;;4988087;28;20038;-84
2023/04/15 12:31:28;;;;;;;70.97;61.40;;;10.80;6.70;;;;;;5007123;28;20042;-85
2023/04/15 12:33:58;;;;;;;64.82;58.10;;;12.50;1.00;;;;;;4987222;28;20549;-85